sensor_id;sensor_type;location;lat;lon;timestamp;temperature;humidity
48836;DHT22;62581;47.342;7.908;2024-02-16T00:01:01;8.00;99.90
48836;DHT22;62581;47.342;7.908;2024-02-16T00:03:28;8.00;99.90
48836;DHT22;62581;47.342;7.908;2024-02-16T00:05:55;8.00;99.90
48836;DHT22;62581;47.342;7.908;2024-02-16T00:08:22;8.00;99.90
48836;DHT22;62581;47.342;7.908;2024-02-16T00:10:50;8.00;99.90
48836;DHT22;62581;47.342;7.908;2024-02-16T00:13:17;8.00;99.90
48836;DHT22;62581;47.342;7.908;2024-02-16T00:15:45;8.00;99.90
48836;DHT22;62581;47.342;7.908;2024-02-16T00:18:12;7.90;99.90
48836;DHT22;62581;47.342;7.908;2024-02-16T00:20:39;7.90;99.90
48836;DHT22;62581;47.342;7.908;2024-02-16T00:23:06;7.90;99.90
48836;DHT22;62581;47.342;7.908;2024-02-16T00:25:33;7.90;99.90
48836;DHT22;62581;47.342;7.908;2024-02-16T00:28:01;8.00;99.90
48836;DHT22;62581;47.342;7.908;2024-02-16T00:30:28;8.00;99.90
48836;DHT22;62581;47.342;7.908;2024-02-16T00:32:55;7.90;99.90
48836;DHT22;62581;47.342;7.908;2024-02-16T00:35:22;7.90;99.90
48836;DHT22;62581;47.342;7.908;2024-02-16T00:37:49;7.90;99.90
48836;DHT22;62581;47.342;7.908;2024-02-16T00:40:17;7.90;99.90
48836;DHT22;62581;47.342;7.908;2024-02-16T00:42:44;7.90;99.90
48836;DHT22;62581;47.342;7.908;2024-02-16T00:45:13;7.90;99.90
48836;DHT22;62581;47.342;7.908;2024-02-16T00:47:39;7.80;99.90
48836;DHT22;62581;47.342;7.908;2024-02-16T00:50:07;7.90;99.90
48836;DHT22;62581;47.342;7.908;2024-02-16T00:52:35;7.90;99.90
48836;DHT22;62581;47.342;7.908;2024-02-16T00:55:03;7.90;99.90
48836;DHT22;62581;47.342;7.908;2024-02-16T00:57:30;7.90;99.90
48836;DHT22;62581;47.342;7.908;2024-02-16T00:59:58;7.90;99.90
48836;DHT22;62581;47.342;7.908;2024-02-16T01:02:27;7.90;99.90
48836;DHT22;62581;47.342;7.908;2024-02-16T01:04:54;7.80;99.90
48836;DHT22;62581;47.342;7.908;2024-02-16T01:07:27;7.90;99.90
48836;DHT22;62581;47.342;7.908;2024-02-16T01:09:54;7.90;99.90
48836;DHT22;62581;47.342;7.908;2024-02-16T01:12:22;7.90;99.90
48836;DHT22;62581;47.342;7.908;2024-02-16T01:14:49;7.90;99.90
48836;DHT22;62581;47.342;7.908;2024-02-16T01:17:16;7.90;99.90
48836;DHT22;62581;47.342;7.908;2024-02-16T01:19:44;7.90;99.90
48836;DHT22;62581;47.342;7.908;2024-02-16T01:22:12;7.90;99.90
48836;DHT22;62581;47.342;7.908;2024-02-16T01:24:39;7.90;99.90
48836;DHT22;62581;47.342;7.908;2024-02-16T01:27:06;7.90;99.90
48836;DHT22;62581;47.342;7.908;2024-02-16T01:29:33;7.90;99.90
48836;DHT22;62581;47.342;7.908;2024-02-16T01:32:00;7.90;99.90
48836;DHT22;62581;47.342;7.908;2024-02-16T01:34:28;7.90;99.90
48836;DHT22;62581;47.342;7.908;2024-02-16T01:36:58;7.90;99.90
48836;DHT22;62581;47.342;7.908;2024-02-16T01:39:25;7.80;99.90
48836;DHT22;62581;47.342;7.908;2024-02-16T01:41:52;7.80;99.90
48836;DHT22;62581;47.342;7.908;2024-02-16T01:44:19;7.80;99.90
48836;DHT22;62581;47.342;7.908;2024-02-16T01:46:46;7.80;99.90
48836;DHT22;62581;47.342;7.908;2024-02-16T01:49:14;7.80;99.90
48836;DHT22;62581;47.342;7.908;2024-02-16T01:51:42;7.80;99.90
48836;DHT22;62581;47.342;7.908;2024-02-16T01:54:11;7.80;99.90
48836;DHT22;62581;47.342;7.908;2024-02-16T01:56:38;7.80;99.90
48836;DHT22;62581;47.342;7.908;2024-02-16T01:59:06;7.80;99.90
48836;DHT22;62581;47.342;7.908;2024-02-16T02:01:33;7.80;99.90
48836;DHT22;62581;47.342;7.908;2024-02-16T02:04:00;7.80;99.90
48836;DHT22;62581;47.342;7.908;2024-02-16T02:06:27;7.80;99.90
48836;DHT22;62581;47.342;7.908;2024-02-16T02:08:54;7.80;99.90
48836;DHT22;62581;47.342;7.908;2024-02-16T02:11:23;7.70;99.90
48836;DHT22;62581;47.342;7.908;2024-02-16T02:13:50;7.80;99.90
48836;DHT22;62581;47.342;7.908;2024-02-16T02:16:18;7.80;99.90
48836;DHT22;62581;47.342;7.908;2024-02-16T02:18:45;7.70;99.90
48836;DHT22;62581;47.342;7.908;2024-02-16T02:21:12;7.80;99.90
48836;DHT22;62581;47.342;7.908;2024-02-16T02:23:41;7.70;99.90
48836;DHT22;62581;47.342;7.908;2024-02-16T02:26:08;7.70;99.90
48836;DHT22;62581;47.342;7.908;2024-02-16T02:28:35;7.70;99.90
48836;DHT22;62581;47.342;7.908;2024-02-16T02:31:02;7.70;99.90
48836;DHT22;62581;47.342;7.908;2024-02-16T02:33:29;7.70;99.90
48836;DHT22;62581;47.342;7.908;2024-02-16T02:35:57;7.60;99.90
48836;DHT22;62581;47.342;7.908;2024-02-16T02:38:24;7.70;99.90
48836;DHT22;62581;47.342;7.908;2024-02-16T02:40:53;7.80;99.90
48836;DHT22;62581;47.342;7.908;2024-02-16T02:43:20;7.90;99.90
48836;DHT22;62581;47.342;7.908;2024-02-16T02:45:48;7.90;99.90
48836;DHT22;62581;47.342;7.908;2024-02-16T02:48:14;7.90;99.90
48836;DHT22;62581;47.342;7.908;2024-02-16T02:50:41;7.90;99.90
48836;DHT22;62581;47.342;7.908;2024-02-16T02:53:08;7.90;99.90
48836;DHT22;62581;47.342;7.908;2024-02-16T02:55:36;7.90;99.90
48836;DHT22;62581;47.342;7.908;2024-02-16T02:58:04;7.80;99.90
48836;DHT22;62581;47.342;7.908;2024-02-16T03:00:31;7.80;99.90
48836;DHT22;62581;47.342;7.908;2024-02-16T03:02:58;7.80;99.90
48836;DHT22;62581;47.342;7.908;2024-02-16T03:05:25;7.80;99.90
48836;DHT22;62581;47.342;7.908;2024-02-16T03:07:52;7.70;99.90
48836;DHT22;62581;47.342;7.908;2024-02-16T03:10:20;7.80;99.90
48836;DHT22;62581;47.342;7.908;2024-02-16T03:12:49;7.70;99.90
48836;DHT22;62581;47.342;7.908;2024-02-16T03:15:17;7.80;99.90
48836;DHT22;62581;47.342;7.908;2024-02-16T03:17:44;7.70;99.90
48836;DHT22;62581;47.342;7.908;2024-02-16T03:20:11;7.70;99.90
48836;DHT22;62581;47.342;7.908;2024-02-16T03:22:38;7.70;99.90
48836;DHT22;62581;47.342;7.908;2024-02-16T03:25:05;7.70;99.90
48836;DHT22;62581;47.342;7.908;2024-02-16T03:27:32;7.60;99.90
48836;DHT22;62581;47.342;7.908;2024-02-16T03:29:59;7.60;99.90
48836;DHT22;62581;47.342;7.908;2024-02-16T03:32:29;7.50;99.90
48836;DHT22;62581;47.342;7.908;2024-02-16T03:34:56;7.50;99.90
48836;DHT22;62581;47.342;7.908;2024-02-16T03:37:23;7.50;99.90
48836;DHT22;62581;47.342;7.908;2024-02-16T03:39:50;7.40;99.90
48836;DHT22;62581;47.342;7.908;2024-02-16T03:42:18;7.30;99.90
48836;DHT22;62581;47.342;7.908;2024-02-16T03:44:45;7.30;99.90
48836;DHT22;62581;47.342;7.908;2024-02-16T03:47:12;7.30;99.90
48836;DHT22;62581;47.342;7.908;2024-02-16T03:49:42;7.20;99.90
48836;DHT22;62581;47.342;7.908;2024-02-16T03:52:09;7.10;99.90
48836;DHT22;62581;47.342;7.908;2024-02-16T03:54:36;7.10;99.90
48836;DHT22;62581;47.342;7.908;2024-02-16T03:57:03;7.00;99.90
48836;DHT22;62581;47.342;7.908;2024-02-16T03:59:34;7.00;99.90
48836;DHT22;62581;47.342;7.908;2024-02-16T04:02:01;7.00;99.90
48836;DHT22;62581;47.342;7.908;2024-02-16T04:04:28;7.00;99.90
48836;DHT22;62581;47.342;7.908;2024-02-16T04:06:57;7.00;99.90
48836;DHT22;62581;47.342;7.908;2024-02-16T04:09:23;6.90;99.90
48836;DHT22;62581;47.342;7.908;2024-02-16T04:11:50;6.90;99.90
48836;DHT22;62581;47.342;7.908;2024-02-16T04:14:17;6.90;99.90
48836;DHT22;62581;47.342;7.908;2024-02-16T04:16:44;6.80;99.90
48836;DHT22;62581;47.342;7.908;2024-02-16T04:19:11;6.70;99.90
48836;DHT22;62581;47.342;7.908;2024-02-16T04:21:38;6.70;99.90
48836;DHT22;62581;47.342;7.908;2024-02-16T04:24:07;6.70;99.90
48836;DHT22;62581;47.342;7.908;2024-02-16T04:26:34;6.60;99.90
48836;DHT22;62581;47.342;7.908;2024-02-16T04:29:02;6.60;99.90
48836;DHT22;62581;47.342;7.908;2024-02-16T04:31:30;6.50;99.90
48836;DHT22;62581;47.342;7.908;2024-02-16T04:33:57;6.50;99.90
48836;DHT22;62581;47.342;7.908;2024-02-16T04:36:24;6.50;99.90
48836;DHT22;62581;47.342;7.908;2024-02-16T04:38:51;6.40;99.90
48836;DHT22;62581;47.342;7.908;2024-02-16T04:41:21;6.30;99.90
48836;DHT22;62581;47.342;7.908;2024-02-16T04:43:48;6.40;99.90
48836;DHT22;62581;47.342;7.908;2024-02-16T04:46:15;6.30;99.90
48836;DHT22;62581;47.342;7.908;2024-02-16T04:48:42;6.20;99.90
48836;DHT22;62581;47.342;7.908;2024-02-16T04:51:10;6.30;99.90
48836;DHT22;62581;47.342;7.908;2024-02-16T04:53:37;6.30;99.90
48836;DHT22;62581;47.342;7.908;2024-02-16T04:56:05;6.30;99.90
48836;DHT22;62581;47.342;7.908;2024-02-16T04:58:34;6.30;99.90
48836;DHT22;62581;47.342;7.908;2024-02-16T05:01:00;6.30;99.90
48836;DHT22;62581;47.342;7.908;2024-02-16T05:03:28;6.30;99.90
48836;DHT22;62581;47.342;7.908;2024-02-16T05:05:55;6.30;99.90
48836;DHT22;62581;47.342;7.908;2024-02-16T05:08:22;6.30;99.90
48836;DHT22;62581;47.342;7.908;2024-02-16T05:10:49;6.30;99.90
48836;DHT22;62581;47.342;7.908;2024-02-16T05:13:16;6.20;99.90
48836;DHT22;62581;47.342;7.908;2024-02-16T05:15:44;6.20;99.90
48836;DHT22;62581;47.342;7.908;2024-02-16T05:18:14;6.20;99.90
48836;DHT22;62581;47.342;7.908;2024-02-16T05:20:43;6.30;99.90
48836;DHT22;62581;47.342;7.908;2024-02-16T05:23:10;6.30;99.90
48836;DHT22;62581;47.342;7.908;2024-02-16T05:25:37;6.30;99.90
48836;DHT22;62581;47.342;7.908;2024-02-16T05:28:04;6.30;99.90
48836;DHT22;62581;47.342;7.908;2024-02-16T05:30:31;6.30;99.90
48836;DHT22;62581;47.342;7.908;2024-02-16T05:33:00;6.40;99.90
48836;DHT22;62581;47.342;7.908;2024-02-16T05:35:28;6.30;99.90
48836;DHT22;62581;47.342;7.908;2024-02-16T05:37:59;6.30;99.90
48836;DHT22;62581;47.342;7.908;2024-02-16T05:40:32;6.30;99.90
48836;DHT22;62581;47.342;7.908;2024-02-16T05:43:10;6.30;99.90
48836;DHT22;62581;47.342;7.908;2024-02-16T05:45:38;6.40;99.90
48836;DHT22;62581;47.342;7.908;2024-02-16T05:48:08;6.40;99.90
48836;DHT22;62581;47.342;7.908;2024-02-16T05:50:36;6.40;99.90
48836;DHT22;62581;47.342;7.908;2024-02-16T05:53:03;6.50;99.90
48836;DHT22;62581;47.342;7.908;2024-02-16T05:55:30;6.50;99.90
48836;DHT22;62581;47.342;7.908;2024-02-16T05:57:57;6.50;99.90
48836;DHT22;62581;47.342;7.908;2024-02-16T06:00:24;6.50;99.90
48836;DHT22;62581;47.342;7.908;2024-02-16T06:02:53;6.50;99.90
48836;DHT22;62581;47.342;7.908;2024-02-16T06:05:21;6.50;99.90
48836;DHT22;62581;47.342;7.908;2024-02-16T06:07:48;6.40;99.90
48836;DHT22;62581;47.342;7.908;2024-02-16T06:10:15;6.40;99.90
48836;DHT22;62581;47.342;7.908;2024-02-16T06:12:43;6.40;99.90
48836;DHT22;62581;47.342;7.908;2024-02-16T06:15:11;6.40;99.90
48836;DHT22;62581;47.342;7.908;2024-02-16T06:17:37;6.40;99.90
48836;DHT22;62581;47.342;7.908;2024-02-16T06:20:07;6.40;99.90
48836;DHT22;62581;47.342;7.908;2024-02-16T06:22:36;6.40;99.90
48836;DHT22;62581;47.342;7.908;2024-02-16T06:25:03;6.50;99.90
48836;DHT22;62581;47.342;7.908;2024-02-16T06:27:31;6.50;99.90
48836;DHT22;62581;47.342;7.908;2024-02-16T06:29:58;6.40;99.90
48836;DHT22;62581;47.342;7.908;2024-02-16T06:32:25;6.40;99.90
48836;DHT22;62581;47.342;7.908;2024-02-16T06:34:52;6.50;99.90
48836;DHT22;62581;47.342;7.908;2024-02-16T06:37:19;6.40;99.90
48836;DHT22;62581;47.342;7.908;2024-02-16T06:39:47;6.50;99.90
48836;DHT22;62581;47.342;7.908;2024-02-16T06:42:14;6.50;99.90
48836;DHT22;62581;47.342;7.908;2024-02-16T06:44:41;6.50;99.90
48836;DHT22;62581;47.342;7.908;2024-02-16T06:47:08;6.50;99.90
48836;DHT22;62581;47.342;7.908;2024-02-16T06:49:35;6.40;99.90
48836;DHT22;62581;47.342;7.908;2024-02-16T06:52:04;6.50;99.90
48836;DHT22;62581;47.342;7.908;2024-02-16T06:54:31;6.50;99.90
48836;DHT22;62581;47.342;7.908;2024-02-16T06:57:00;6.50;99.90
48836;DHT22;62581;47.342;7.908;2024-02-16T06:59:27;6.50;99.90
48836;DHT22;62581;47.342;7.908;2024-02-16T07:01:54;6.50;99.90
48836;DHT22;62581;47.342;7.908;2024-02-16T07:04:20;6.50;99.90
48836;DHT22;62581;47.342;7.908;2024-02-16T07:06:47;6.60;99.90
48836;DHT22;62581;47.342;7.908;2024-02-16T07:09:14;6.60;99.90
48836;DHT22;62581;47.342;7.908;2024-02-16T07:11:42;6.60;99.90
48836;DHT22;62581;47.342;7.908;2024-02-16T07:14:13;6.70;99.90
48836;DHT22;62581;47.342;7.908;2024-02-16T07:16:40;6.70;99.90
48836;DHT22;62581;47.342;7.908;2024-02-16T07:19:07;6.80;99.90
48836;DHT22;62581;47.342;7.908;2024-02-16T07:21:34;6.80;99.90
48836;DHT22;62581;47.342;7.908;2024-02-16T07:24:01;6.80;99.90
48836;DHT22;62581;47.342;7.908;2024-02-16T07:26:29;6.80;99.90
48836;DHT22;62581;47.342;7.908;2024-02-16T07:28:56;6.90;99.90
48836;DHT22;62581;47.342;7.908;2024-02-16T07:31:24;7.00;99.90
48836;DHT22;62581;47.342;7.908;2024-02-16T07:33:51;7.00;99.90
48836;DHT22;62581;47.342;7.908;2024-02-16T07:36:18;7.10;99.90
48836;DHT22;62581;47.342;7.908;2024-02-16T07:38:45;7.10;99.90
48836;DHT22;62581;47.342;7.908;2024-02-16T07:41:12;7.10;99.90
48836;DHT22;62581;47.342;7.908;2024-02-16T07:43:39;7.10;99.90
48836;DHT22;62581;47.342;7.908;2024-02-16T07:46:06;7.20;99.90
48836;DHT22;62581;47.342;7.908;2024-02-16T07:48:35;7.30;99.90
48836;DHT22;62581;47.342;7.908;2024-02-16T07:51:02;7.30;99.90
48836;DHT22;62581;47.342;7.908;2024-02-16T07:53:30;7.40;99.90
48836;DHT22;62581;47.342;7.908;2024-02-16T07:55:57;7.40;99.90
48836;DHT22;62581;47.342;7.908;2024-02-16T07:58:25;7.50;99.90
48836;DHT22;62581;47.342;7.908;2024-02-16T08:00:52;7.50;99.90
48836;DHT22;62581;47.342;7.908;2024-02-16T08:03:20;7.60;99.90
48836;DHT22;62581;47.342;7.908;2024-02-16T08:05:48;7.60;99.90
48836;DHT22;62581;47.342;7.908;2024-02-16T08:08:15;7.70;99.90
48836;DHT22;62581;47.342;7.908;2024-02-16T08:10:42;7.70;99.90
48836;DHT22;62581;47.342;7.908;2024-02-16T08:13:09;8.00;99.90
48836;DHT22;62581;47.342;7.908;2024-02-16T08:15:36;8.10;99.90
48836;DHT22;62581;47.342;7.908;2024-02-16T08:18:03;8.20;99.90
48836;DHT22;62581;47.342;7.908;2024-02-16T08:20:31;8.20;99.90
48836;DHT22;62581;47.342;7.908;2024-02-16T08:22:59;8.20;99.90
48836;DHT22;62581;47.342;7.908;2024-02-16T08:25:26;8.20;99.90
48836;DHT22;62581;47.342;7.908;2024-02-16T08:27:53;8.30;99.90
48836;DHT22;62581;47.342;7.908;2024-02-16T08:30:20;8.30;99.90
48836;DHT22;62581;47.342;7.908;2024-02-16T08:32:47;8.30;99.90
48836;DHT22;62581;47.342;7.908;2024-02-16T08:35:14;8.30;99.90
48836;DHT22;62581;47.342;7.908;2024-02-16T08:37:42;8.40;99.90
48836;DHT22;62581;47.342;7.908;2024-02-16T08:40:12;8.40;99.90
48836;DHT22;62581;47.342;7.908;2024-02-16T08:42:40;8.50;99.90
48836;DHT22;62581;47.342;7.908;2024-02-16T08:45:08;8.50;99.90
48836;DHT22;62581;47.342;7.908;2024-02-16T08:47:35;8.60;99.90
48836;DHT22;62581;47.342;7.908;2024-02-16T08:50:04;8.60;99.90
48836;DHT22;62581;47.342;7.908;2024-02-16T08:52:32;8.70;99.90
48836;DHT22;62581;47.342;7.908;2024-02-16T08:54:59;8.80;99.90
48836;DHT22;62581;47.342;7.908;2024-02-16T08:57:27;8.80;99.90
48836;DHT22;62581;47.342;7.908;2024-02-16T08:59:54;8.90;99.90
48836;DHT22;62581;47.342;7.908;2024-02-16T09:02:22;9.00;99.90
48836;DHT22;62581;47.342;7.908;2024-02-16T09:04:49;9.00;99.90
48836;DHT22;62581;47.342;7.908;2024-02-16T09:07:16;9.10;99.90
48836;DHT22;62581;47.342;7.908;2024-02-16T09:09:43;9.10;99.90
48836;DHT22;62581;47.342;7.908;2024-02-16T09:12:10;9.20;99.90
48836;DHT22;62581;47.342;7.908;2024-02-16T09:14:38;9.20;99.90
48836;DHT22;62581;47.342;7.908;2024-02-16T09:17:06;9.30;99.90
48836;DHT22;62581;47.342;7.908;2024-02-16T09:19:33;9.40;99.90
48836;DHT22;62581;47.342;7.908;2024-02-16T09:22:00;9.50;99.90
48836;DHT22;62581;47.342;7.908;2024-02-16T09:24:28;9.50;99.90
48836;DHT22;62581;47.342;7.908;2024-02-16T09:26:56;9.60;99.90
48836;DHT22;62581;47.342;7.908;2024-02-16T09:29:26;9.70;99.90
48836;DHT22;62581;47.342;7.908;2024-02-16T09:31:56;9.70;99.90
48836;DHT22;62581;47.342;7.908;2024-02-16T09:34:23;9.80;99.90
48836;DHT22;62581;47.342;7.908;2024-02-16T09:36:49;9.80;99.90
48836;DHT22;62581;47.342;7.908;2024-02-16T09:39:16;9.90;99.90
48836;DHT22;62581;47.342;7.908;2024-02-16T09:41:47;10.00;99.90
48836;DHT22;62581;47.342;7.908;2024-02-16T09:44:16;10.10;99.90
48836;DHT22;62581;47.342;7.908;2024-02-16T09:46:44;10.20;99.90
48836;DHT22;62581;47.342;7.908;2024-02-16T09:49:12;10.30;99.90
48836;DHT22;62581;47.342;7.908;2024-02-16T09:51:39;10.40;99.90
48836;DHT22;62581;47.342;7.908;2024-02-16T09:54:06;10.50;99.90
48836;DHT22;62581;47.342;7.908;2024-02-16T09:56:33;10.60;99.90
48836;DHT22;62581;47.342;7.908;2024-02-16T09:59:00;10.60;99.90
48836;DHT22;62581;47.342;7.908;2024-02-16T10:01:27;10.70;99.90
48836;DHT22;62581;47.342;7.908;2024-02-16T10:04:05;10.80;99.90
48836;DHT22;62581;47.342;7.908;2024-02-16T10:06:45;10.90;99.90
48836;DHT22;62581;47.342;7.908;2024-02-16T10:09:22;11.00;99.90
48836;DHT22;62581;47.342;7.908;2024-02-16T10:11:49;11.10;99.90
48836;DHT22;62581;47.342;7.908;2024-02-16T10:14:17;11.10;99.90
48836;DHT22;62581;47.342;7.908;2024-02-16T10:16:45;11.20;99.90
48836;DHT22;62581;47.342;7.908;2024-02-16T10:19:13;11.30;99.90
48836;DHT22;62581;47.342;7.908;2024-02-16T10:21:41;11.50;99.90
48836;DHT22;62581;47.342;7.908;2024-02-16T10:24:09;11.60;99.90
48836;DHT22;62581;47.342;7.908;2024-02-16T10:26:37;11.80;99.90
48836;DHT22;62581;47.342;7.908;2024-02-16T10:29:05;11.90;99.90
48836;DHT22;62581;47.342;7.908;2024-02-16T10:31:33;12.10;99.90
48836;DHT22;62581;47.342;7.908;2024-02-16T10:34:01;12.30;99.90
48836;DHT22;62581;47.342;7.908;2024-02-16T10:36:32;12.40;99.90
48836;DHT22;62581;47.342;7.908;2024-02-16T10:39:01;12.50;99.90
48836;DHT22;62581;47.342;7.908;2024-02-16T10:41:32;12.60;99.90
48836;DHT22;62581;47.342;7.908;2024-02-16T10:44:01;12.80;99.90
48836;DHT22;62581;47.342;7.908;2024-02-16T10:46:28;12.80;99.90
48836;DHT22;62581;47.342;7.908;2024-02-16T10:48:55;12.90;99.90
48836;DHT22;62581;47.342;7.908;2024-02-16T10:51:25;12.90;99.90
48836;DHT22;62581;47.342;7.908;2024-02-16T10:53:56;12.80;99.90
48836;DHT22;62581;47.342;7.908;2024-02-16T10:56:31;12.70;99.90
48836;DHT22;62581;47.342;7.908;2024-02-16T10:59:01;12.60;99.90
48836;DHT22;62581;47.342;7.908;2024-02-16T11:01:31;12.60;99.90
48836;DHT22;62581;47.342;7.908;2024-02-16T11:04:01;12.70;99.90
48836;DHT22;62581;47.342;7.908;2024-02-16T11:06:29;12.70;99.90
48836;DHT22;62581;47.342;7.908;2024-02-16T11:09:01;12.70;99.90
48836;DHT22;62581;47.342;7.908;2024-02-16T11:11:34;12.80;99.90
48836;DHT22;62581;47.342;7.908;2024-02-16T11:14:02;12.80;99.90
48836;DHT22;62581;47.342;7.908;2024-02-16T11:16:30;13.00;99.90
48836;DHT22;62581;47.342;7.908;2024-02-16T11:18:57;13.00;99.90
48836;DHT22;62581;47.342;7.908;2024-02-16T11:21:24;13.20;99.90
48836;DHT22;62581;47.342;7.908;2024-02-16T11:23:51;13.40;99.90
48836;DHT22;62581;47.342;7.908;2024-02-16T11:26:18;13.40;99.90
48836;DHT22;62581;47.342;7.908;2024-02-16T11:28:46;13.40;99.90
48836;DHT22;62581;47.342;7.908;2024-02-16T11:31:13;13.50;99.90
48836;DHT22;62581;47.342;7.908;2024-02-16T11:33:44;13.40;99.90
48836;DHT22;62581;47.342;7.908;2024-02-16T11:36:11;13.20;99.90
48836;DHT22;62581;47.342;7.908;2024-02-16T11:38:39;13.10;99.90
48836;DHT22;62581;47.342;7.908;2024-02-16T11:41:07;13.10;99.90
48836;DHT22;62581;47.342;7.908;2024-02-16T11:43:34;13.00;99.90
48836;DHT22;62581;47.342;7.908;2024-02-16T11:46:13;12.90;99.90
48836;DHT22;62581;47.342;7.908;2024-02-16T11:48:40;12.90;99.90
48836;DHT22;62581;47.342;7.908;2024-02-16T11:51:06;12.90;99.90
48836;DHT22;62581;47.342;7.908;2024-02-16T11:53:34;12.90;99.90
48836;DHT22;62581;47.342;7.908;2024-02-16T11:56:01;12.80;99.90
48836;DHT22;62581;47.342;7.908;2024-02-16T11:58:30;12.80;99.90
48836;DHT22;62581;47.342;7.908;2024-02-16T12:00:57;12.80;99.90
48836;DHT22;62581;47.342;7.908;2024-02-16T12:03:26;12.70;99.90
48836;DHT22;62581;47.342;7.908;2024-02-16T12:05:55;12.70;99.90
48836;DHT22;62581;47.342;7.908;2024-02-16T12:08:23;12.70;99.90
48836;DHT22;62581;47.342;7.908;2024-02-16T12:10:51;12.90;99.90
48836;DHT22;62581;47.342;7.908;2024-02-16T12:13:19;12.90;99.90
48836;DHT22;62581;47.342;7.908;2024-02-16T12:15:47;13.00;99.90
48836;DHT22;62581;47.342;7.908;2024-02-16T12:18:21;13.10;99.90
48836;DHT22;62581;47.342;7.908;2024-02-16T12:20:59;13.10;99.90
48836;DHT22;62581;47.342;7.908;2024-02-16T12:23:27;13.20;99.90
48836;DHT22;62581;47.342;7.908;2024-02-16T12:25:54;13.20;99.90
48836;DHT22;62581;47.342;7.908;2024-02-16T12:28:24;13.20;99.90
48836;DHT22;62581;47.342;7.908;2024-02-16T12:30:51;13.20;99.90
48836;DHT22;62581;47.342;7.908;2024-02-16T12:33:18;13.20;99.90
48836;DHT22;62581;47.342;7.908;2024-02-16T12:35:45;13.30;99.90
48836;DHT22;62581;47.342;7.908;2024-02-16T12:38:14;13.30;99.90
48836;DHT22;62581;47.342;7.908;2024-02-16T12:40:42;13.40;99.90
48836;DHT22;62581;47.342;7.908;2024-02-16T12:43:09;13.40;99.90
48836;DHT22;62581;47.342;7.908;2024-02-16T12:45:38;13.40;99.90
48836;DHT22;62581;47.342;7.908;2024-02-16T12:48:05;13.50;99.90
48836;DHT22;62581;47.342;7.908;2024-02-16T12:50:33;13.50;99.90
48836;DHT22;62581;47.342;7.908;2024-02-16T12:53:00;13.50;99.90
48836;DHT22;62581;47.342;7.908;2024-02-16T12:55:28;13.50;99.90
48836;DHT22;62581;47.342;7.908;2024-02-16T12:57:56;13.60;99.90
48836;DHT22;62581;47.342;7.908;2024-02-16T13:00:23;13.70;99.90
48836;DHT22;62581;47.342;7.908;2024-02-16T13:02:50;13.70;99.90
48836;DHT22;62581;47.342;7.908;2024-02-16T13:05:17;13.80;99.90
48836;DHT22;62581;47.342;7.908;2024-02-16T13:07:44;13.80;99.90
48836;DHT22;62581;47.342;7.908;2024-02-16T13:10:11;13.90;99.90
48836;DHT22;62581;47.342;7.908;2024-02-16T13:12:40;13.90;99.90
48836;DHT22;62581;47.342;7.908;2024-02-16T13:15:08;14.00;99.90
48836;DHT22;62581;47.342;7.908;2024-02-16T13:17:35;14.10;99.90
48836;DHT22;62581;47.342;7.908;2024-02-16T13:20:03;14.20;99.90
48836;DHT22;62581;47.342;7.908;2024-02-16T13:22:35;14.20;99.90
48836;DHT22;62581;47.342;7.908;2024-02-16T13:25:03;14.30;99.90
48836;DHT22;62581;47.342;7.908;2024-02-16T13:27:30;14.30;99.90
48836;DHT22;62581;47.342;7.908;2024-02-16T13:29:59;14.40;99.90
48836;DHT22;62581;47.342;7.908;2024-02-16T13:32:26;14.40;99.90
48836;DHT22;62581;47.342;7.908;2024-02-16T13:34:53;14.50;99.90
48836;DHT22;62581;47.342;7.908;2024-02-16T13:37:20;14.70;99.90
48836;DHT22;62581;47.342;7.908;2024-02-16T13:39:47;14.80;99.90
48836;DHT22;62581;47.342;7.908;2024-02-16T13:42:15;14.90;99.90
48836;DHT22;62581;47.342;7.908;2024-02-16T13:44:42;14.90;99.90
48836;DHT22;62581;47.342;7.908;2024-02-16T13:47:10;15.00;99.90
48836;DHT22;62581;47.342;7.908;2024-02-16T13:49:37;15.00;99.90
48836;DHT22;62581;47.342;7.908;2024-02-16T13:52:05;15.10;99.90
48836;DHT22;62581;47.342;7.908;2024-02-16T13:54:34;15.10;99.90
48836;DHT22;62581;47.342;7.908;2024-02-16T13:57:01;15.10;99.90
48836;DHT22;62581;47.342;7.908;2024-02-16T13:59:28;15.10;99.90
48836;DHT22;62581;47.342;7.908;2024-02-16T14:01:55;15.10;99.90
48836;DHT22;62581;47.342;7.908;2024-02-16T14:04:24;15.00;99.90
48836;DHT22;62581;47.342;7.908;2024-02-16T14:06:52;14.90;99.90
48836;DHT22;62581;47.342;7.908;2024-02-16T14:09:19;14.90;99.90
48836;DHT22;62581;47.342;7.908;2024-02-16T14:11:47;14.80;99.90
48836;DHT22;62581;47.342;7.908;2024-02-16T14:14:14;14.80;99.90
48836;DHT22;62581;47.342;7.908;2024-02-16T14:16:41;14.90;99.90
48836;DHT22;62581;47.342;7.908;2024-02-16T14:19:08;14.90;99.90
48836;DHT22;62581;47.342;7.908;2024-02-16T14:21:36;15.10;99.90
48836;DHT22;62581;47.342;7.908;2024-02-16T14:24:03;15.40;99.90
48836;DHT22;62581;47.342;7.908;2024-02-16T14:26:31;15.50;99.90
48836;DHT22;62581;47.342;7.908;2024-02-16T14:28:58;15.50;99.90
48836;DHT22;62581;47.342;7.908;2024-02-16T14:31:25;15.70;99.90
48836;DHT22;62581;47.342;7.908;2024-02-16T14:33:52;15.80;99.90
48836;DHT22;62581;47.342;7.908;2024-02-16T14:36:19;15.90;99.90
48836;DHT22;62581;47.342;7.908;2024-02-16T14:38:47;15.90;99.90
48836;DHT22;62581;47.342;7.908;2024-02-16T14:41:15;16.10;99.90
48836;DHT22;62581;47.342;7.908;2024-02-16T14:43:42;16.30;99.90
48836;DHT22;62581;47.342;7.908;2024-02-16T14:46:09;16.50;99.90
48836;DHT22;62581;47.342;7.908;2024-02-16T14:48:37;16.90;99.90
48836;DHT22;62581;47.342;7.908;2024-02-16T14:51:04;17.00;99.90
48836;DHT22;62581;47.342;7.908;2024-02-16T14:53:31;16.90;99.90
48836;DHT22;62581;47.342;7.908;2024-02-16T14:56:00;16.80;99.90
48836;DHT22;62581;47.342;7.908;2024-02-16T14:58:28;16.90;99.90
48836;DHT22;62581;47.342;7.908;2024-02-16T15:00:55;17.10;99.90
48836;DHT22;62581;47.342;7.908;2024-02-16T15:03:23;17.10;99.90
48836;DHT22;62581;47.342;7.908;2024-02-16T15:05:51;17.10;99.90
48836;DHT22;62581;47.342;7.908;2024-02-16T15:08:19;17.30;99.90
48836;DHT22;62581;47.342;7.908;2024-02-16T15:10:45;17.50;99.90
48836;DHT22;62581;47.342;7.908;2024-02-16T15:13:15;17.80;99.90
48836;DHT22;62581;47.342;7.908;2024-02-16T15:15:42;17.90;99.90
48836;DHT22;62581;47.342;7.908;2024-02-16T15:18:09;17.60;99.90
48836;DHT22;62581;47.342;7.908;2024-02-16T15:20:36;17.50;99.90
48836;DHT22;62581;47.342;7.908;2024-02-16T15:23:03;17.40;99.90
48836;DHT22;62581;47.342;7.908;2024-02-16T15:25:30;17.20;99.90
48836;DHT22;62581;47.342;7.908;2024-02-16T15:27:57;17.10;99.90
48836;DHT22;62581;47.342;7.908;2024-02-16T15:30:26;16.90;99.90
48836;DHT22;62581;47.342;7.908;2024-02-16T15:32:53;16.80;99.90
48836;DHT22;62581;47.342;7.908;2024-02-16T15:35:20;16.60;99.90
48836;DHT22;62581;47.342;7.908;2024-02-16T15:37:47;16.40;99.90
48836;DHT22;62581;47.342;7.908;2024-02-16T15:40:14;16.00;99.90
48836;DHT22;62581;47.342;7.908;2024-02-16T15:42:41;15.80;99.90